West Union, SC (29696)

06:26 AM EDT del 26 Settembre 2016 (GMT -0400)
Bear Swamp Road | | Change Station

Alt. 1010 ft 34.73 °N, 83.04 °W | Updated 14 minutes ago

Overcast
Coperto
71.6 °F
Sembra 77 °F
N
0.0
Vento Variabile Vento da Est
Gusts 0.0 mph

Oggi
Massima -- | Minima -- °F
--% Possibilità di precip.
Ieri
Massima -- | Minima -- °F
Precip. -- in
Pressione 30.07 in
Visibilità 10.0 miglia
Nuvole Alcuni 3200 ft
Molto nuvoloso 6500 ft
Coperto 8000 ft
Indice di calore 77 °F
Punto di rugiada 51 °F
Umidità 48%
Piovosità 0.00 in
Spessore del manto nevoso Non disponibile.
7:23 AM 7:22 PM
Luna calante, 20% visible
METAR KCEU 260954Z AUTO 15003KT 10SM FEW032 BKN065 OVC080 24/19 A3011 RMK AO2 SLP183 T02390194
Pressione 30.07 in
Visibilità 10.0 miglia
Nuvole Alcuni 3200 ft
Molto nuvoloso 6500 ft
Coperto 8000 ft
Indice di calore 77 °F
Punto di rugiada 51 °F
Umidità 48%
Piovosità 0.00 in
Spessore del manto nevoso Non disponibile.
7:23 AM 7:22 PM
Luna calante, 20% visible
METAR KCEU 260954Z AUTO 15003KT 10SM FEW032 BKN065 OVC080 24/19 A3011 RMK AO2 SLP183 T02390194

10-Day Weather Forecast

Almanac

Astronomia

Sep. 26, 2016 Alba Tramonto
Ora attuale
Crepuscolo civile
Crepuscolo nautico
Crepuscolo astronomico
Luna
Estensione della luce visibile
Lunghezza del giorno
Tomorrow will be .
, % of the Moon is Illuminated

Gli estremi di oggi

State Highs State Lows

Community

WunderPhotos

Upload Photos

1,941,852 foto caricate!

WunderBlog® & News

Nearby

Qualità dell'aria

  Qualità dell'aria Indice AQ Inquinante
Not available.

Profondità neve

Stazione Profondità Altitudine

Attività sismica

Città  Distanza Mag. Data & Ora
Minimo Magnitudo Mostrato è 2.5.

Temperature delle acque costiere

Località Temperatura

Stations

Stazioni meteo nelle vicinanze

Ubicazione della stazione Temp. Raffreddamento del vento Punto di rugiada Umidità Vento Precip. Alt. Aggiornato Tipo
                   

Watches & Warnings

There are currently no watches in effect.